Andover, Ohio
Current Conditions -  °F | °C
As of 5:53 PM on Saturday 25 Oct 2014 (Local Time) from KHZY Reporting Station
Few Clouds Few Clouds  
Wind Chill: 16°   Ceiling: Unl
Heat Index: 16°   Visibility: 10mi
Dew Point: 11°   Wind: 14mph
Humidity: 70%   Direction: 270°W
Pressure: 29.73"   Gusts: 28mph
Location:  41.61°N, 80.57°W
Report Text: KHZY 252153Z AUTO 27012G24KT 10SM FEW028 16/11 A2973 RMK AO2 SLP066 T01610106
Loading
Personal Weather Stations






























Interactive Weather Map
Tropical Storm Tracking
New forecast layout! Learn more

10-Day Weather Forecast

Advertisements
Track Severe Weather on mobile